createdAt,value
2022-10-11T00:01:43.319Z,19.15
2022-10-11T00:04:10.604Z,13.52
2022-10-11T00:06:40.068Z,10.70
2022-10-11T00:09:06.905Z,25.60
2022-10-11T00:11:33.489Z,15.80
2022-10-11T00:14:00.110Z,12.93
2022-10-11T00:16:26.697Z,11.10
2022-10-11T00:18:53.538Z,12.68
2022-10-11T00:21:21.581Z,13.57
2022-10-11T00:23:48.853Z,15.05
2022-10-11T00:26:15.918Z,16.67
2022-10-11T00:28:42.869Z,11.85
2022-10-11T00:31:13.283Z,15.93
2022-10-11T00:33:39.985Z,12.80
2022-10-11T00:36:08.617Z,11.48
2022-10-11T00:38:35.678Z,8.60
2022-10-11T00:41:02.297Z,13.98
2022-10-11T00:43:31.053Z,12.75
2022-10-11T00:45:57.587Z,16.38
2022-10-11T00:48:32.447Z,12.52
2022-10-11T00:51:01.394Z,14.10
2022-10-11T00:53:31.134Z,16.40
2022-10-11T00:56:08.441Z,12.23
2022-10-11T00:58:36.924Z,12.63
2022-10-11T01:01:03.872Z,13.00
2022-10-11T01:03:32.448Z,10.40
2022-10-11T01:05:59.083Z,17.08
2022-10-11T01:08:26.862Z,13.38
2022-10-11T01:10:53.819Z,12.85
2022-10-11T01:13:35.349Z,12.70
2022-10-11T01:16:26.682Z,14.88
2022-10-11T01:19:22.250Z,13.95
2022-10-11T01:21:57.623Z,19.75
2022-10-11T01:24:27.141Z,10.50
2022-10-11T01:27:25.921Z,11.75
2022-10-11T01:30:04.804Z,10.32
2022-10-11T01:32:43.300Z,12.43
2022-10-11T01:35:31.699Z,11.90
2022-10-11T01:38:30.069Z,12.98
2022-10-11T01:41:02.246Z,12.48
2022-10-11T01:43:30.145Z,10.75
2022-10-11T01:45:58.018Z,10.85
2022-10-11T01:48:25.155Z,15.18
2022-10-11T01:50:54.086Z,18.35
2022-10-11T01:53:39.374Z,18.45
2022-10-11T01:56:31.736Z,14.75
2022-10-11T01:59:28.774Z,13.50
2022-10-11T02:02:13.957Z,16.00
2022-10-11T02:04:57.393Z,10.50
2022-10-11T02:07:41.860Z,15.30
2022-10-11T02:10:21.251Z,19.73
2022-10-11T02:13:00.508Z,18.48
2022-10-11T02:15:31.100Z,14.10
2022-10-11T02:18:02.459Z,11.43
2022-10-11T02:20:31.896Z,13.68
2022-10-11T02:23:07.421Z,14.13
2022-10-11T02:25:36.250Z,15.50
2022-10-11T02:28:08.890Z,18.45
2022-10-11T02:30:37.150Z,16.38
2022-10-11T02:33:07.594Z,19.25
2022-10-11T02:35:38.725Z,16.10
2022-10-11T02:38:27.904Z,12.87
2022-10-11T02:41:05.312Z,16.25
2022-10-11T02:43:43.830Z,13.67
2022-10-11T02:46:11.010Z,13.65
2022-10-11T02:48:37.710Z,11.20
2022-10-11T02:51:04.826Z,12.30
2022-10-11T02:53:31.989Z,13.02
2022-10-11T02:55:58.571Z,16.90
2022-10-11T02:58:25.574Z,17.90
2022-10-11T03:00:52.294Z,14.50
2022-10-11T03:03:18.966Z,16.17
2022-10-11T03:05:45.589Z,11.07
2022-10-11T03:08:14.370Z,13.63
2022-10-11T03:10:41.882Z,17.85
2022-10-11T03:13:09.092Z,21.97
2022-10-11T03:15:35.770Z,19.23
2022-10-11T03:18:02.493Z,14.17
2022-10-11T03:20:29.053Z,15.25
2022-10-11T03:22:55.889Z,14.90
2022-10-11T03:25:22.485Z,13.47
2022-10-11T03:27:49.036Z,15.37
2022-10-11T03:30:18.347Z,19.37
2022-10-11T03:32:45.473Z,14.60
2022-10-11T03:35:12.273Z,15.60
2022-10-11T03:37:38.888Z,17.33
2022-10-11T03:40:08.261Z,14.38
2022-10-11T03:42:35.697Z,10.10
2022-10-11T03:45:04.940Z,20.67
2022-10-11T03:47:32.165Z,17.25
2022-10-11T03:49:58.742Z,13.98
2022-10-11T03:52:25.663Z,13.88
2022-10-11T03:54:52.714Z,15.52
2022-10-11T03:57:19.410Z,17.80
2022-10-11T03:59:46.083Z,13.50
2022-10-11T04:02:12.810Z,14.50
2022-10-11T04:04:39.601Z,12.00
2022-10-11T04:07:06.305Z,11.73
2022-10-11T04:09:32.875Z,20.88
2022-10-11T04:11:59.498Z,12.27
2022-10-11T04:14:26.812Z,11.40
2022-10-11T04:16:56.353Z,15.70
2022-10-11T04:19:25.084Z,15.32
2022-10-11T04:21:51.707Z,16.50
2022-10-11T04:24:18.310Z,17.67
2022-10-11T04:26:44.869Z,18.90
2022-10-11T04:29:11.846Z,17.43
2022-10-11T04:31:38.575Z,16.47
2022-10-11T04:34:05.132Z,11.37
2022-10-11T04:36:33.833Z,18.67
2022-10-11T04:39:01.738Z,18.25
2022-10-11T04:41:29.355Z,14.33
2022-10-11T04:43:56.078Z,16.73
2022-10-11T04:46:22.988Z,15.97
2022-10-11T04:48:49.958Z,18.10
2022-10-11T04:51:16.794Z,12.23
2022-10-11T04:53:43.464Z,18.95
2022-10-11T04:56:11.556Z,13.57
2022-10-11T04:58:40.957Z,17.53
2022-10-11T05:01:08.509Z,15.27
2022-10-11T05:03:35.468Z,13.13
2022-10-11T05:06:05.675Z,14.27
2022-10-11T05:08:33.167Z,13.50
2022-10-11T05:11:05.577Z,12.77
2022-10-11T05:13:34.319Z,13.77
2022-10-11T05:16:01.400Z,13.00
2022-10-11T05:18:28.849Z,18.03
2022-10-11T05:21:06.142Z,15.87
2022-10-11T05:23:37.164Z,14.60
2022-10-11T05:26:04.194Z,14.80
2022-10-11T05:28:31.733Z,13.27
2022-10-11T05:30:58.606Z,18.87
2022-10-11T05:33:25.879Z,14.77
2022-10-11T05:35:52.857Z,15.80
2022-10-11T05:38:19.530Z,12.60
2022-10-11T05:40:46.179Z,14.87
2022-10-11T05:43:12.769Z,16.07
2022-10-11T05:45:41.659Z,20.90
2022-10-11T05:48:09.195Z,19.47
2022-10-11T05:50:37.027Z,17.77
2022-10-11T05:53:04.649Z,20.93
2022-10-11T05:55:36.322Z,15.95
2022-10-11T05:58:02.893Z,17.53
2022-10-11T06:00:29.524Z,14.17
2022-10-11T06:02:56.304Z,18.27
2022-10-11T06:05:22.890Z,15.57
2022-10-11T06:07:49.572Z,17.13
2022-10-11T06:10:16.216Z,17.37
2022-10-11T06:12:42.824Z,17.77
2022-10-11T06:15:11.190Z,18.92
2022-10-11T06:17:38.119Z,11.97
2022-10-11T06:20:05.321Z,17.57
2022-10-11T06:22:31.920Z,19.60
2022-10-11T06:24:58.737Z,12.98
2022-10-11T06:27:25.341Z,14.20
2022-10-11T06:29:51.877Z,14.67
2022-10-11T06:32:18.452Z,15.02
2022-10-11T06:34:45.004Z,13.10
2022-10-11T06:37:11.582Z,16.00
2022-10-11T06:39:38.215Z,14.47
2022-10-11T06:42:04.864Z,15.37
2022-10-11T06:44:31.601Z,9.65
2022-10-11T06:46:58.313Z,18.08
2022-10-11T06:49:24.908Z,16.98
2022-10-11T06:51:51.595Z,10.57
2022-10-11T06:54:18.256Z,10.32
2022-10-11T06:56:45.678Z,12.30
2022-10-11T06:59:13.358Z,12.60
2022-10-11T07:01:40.208Z,16.30
2022-10-11T07:04:07.239Z,14.40
2022-10-11T07:06:40.202Z,12.03
2022-10-11T07:09:07.814Z,14.85
2022-10-11T07:11:34.863Z,11.75
2022-10-11T07:14:05.720Z,12.77
2022-10-11T07:16:32.326Z,13.07
2022-10-11T07:19:01.389Z,11.43
2022-10-11T07:21:29.149Z,13.80
2022-10-11T07:23:55.891Z,11.20
2022-10-11T07:26:22.513Z,10.68
2022-10-11T07:28:49.179Z,13.43
2022-10-11T07:31:19.571Z,9.27
2022-10-11T07:33:46.256Z,10.77
2022-10-11T07:36:13.721Z,15.25
2022-10-11T07:38:41.698Z,8.55
2022-10-11T07:41:09.297Z,10.82
2022-10-11T07:43:36.927Z,11.93
2022-10-11T07:46:04.991Z,8.52
2022-10-11T07:48:33.619Z,12.32
2022-10-11T07:51:08.541Z,10.57
2022-10-11T07:53:39.750Z,11.13
2022-10-11T07:56:07.835Z,10.35
2022-10-11T07:58:34.949Z,11.20
2022-10-11T08:01:01.661Z,11.00
2022-10-11T08:03:28.362Z,8.25
2022-10-11T08:05:54.932Z,13.80
2022-10-11T08:08:21.511Z,8.88
2022-10-11T08:10:48.345Z,10.07
2022-10-11T08:13:14.987Z,10.77
2022-10-11T08:15:41.634Z,10.32
2022-10-11T08:18:08.333Z,10.02
2022-10-11T08:20:35.093Z,7.00
2022-10-11T08:23:01.760Z,12.80
2022-10-11T08:25:28.490Z,7.28
2022-10-11T08:27:55.210Z,7.32
2022-10-11T08:30:21.973Z,10.55
2022-10-11T08:32:48.878Z,7.00
2022-10-11T08:35:15.637Z,6.00
2022-10-11T08:37:42.337Z,5.28
2022-10-11T08:40:14.878Z,9.05
2022-10-11T08:42:48.241Z,6.68
2022-10-11T08:45:37.244Z,7.25
2022-10-11T08:48:17.939Z,7.20
2022-10-11T08:50:47.768Z,9.00
2022-10-11T08:53:25.506Z,10.05
2022-10-11T08:55:54.109Z,7.25
2022-10-11T08:58:25.803Z,7.72
2022-10-11T09:00:55.018Z,7.88
2022-10-11T09:03:36.481Z,5.72
2022-10-11T09:06:12.272Z,6.28
2022-10-11T09:09:19.488Z,7.07
2022-10-11T09:12:18.311Z,10.32
2022-10-11T09:14:59.719Z,7.00
2022-10-11T09:17:37.417Z,5.78
2022-10-11T09:20:21.948Z,13.98
2022-10-11T09:23:13.628Z,9.80
2022-10-11T09:25:58.462Z,4.00
2022-10-11T09:28:38.138Z,4.97
2022-10-11T09:31:10.917Z,5.53
2022-10-11T09:33:46.845Z,4.50
2022-10-11T09:36:56.062Z,8.07
2022-10-11T09:39:32.187Z,5.93
2022-10-11T09:42:07.787Z,5.60
2022-10-11T09:44:55.168Z,8.13
2022-10-11T09:47:27.531Z,5.55
2022-10-11T09:50:30.559Z,6.43
2022-10-11T09:53:00.246Z,6.10
2022-10-11T09:55:39.370Z,5.55
2022-10-11T09:58:25.455Z,5.53
2022-10-11T10:01:08.047Z,5.60
2022-10-11T10:03:40.649Z,7.13
2022-10-11T10:06:25.124Z,7.45
2022-10-11T10:08:51.951Z,5.97
2022-10-11T10:11:19.658Z,5.07
2022-10-11T10:13:53.340Z,6.80
2022-10-11T10:16:29.451Z,5.15
2022-10-11T10:19:00.460Z,6.30
2022-10-11T10:21:35.379Z,7.30
2022-10-11T10:24:18.633Z,6.38
2022-10-11T10:27:18.675Z,7.28
2022-10-11T10:30:13.129Z,8.88
2022-10-11T10:32:51.602Z,7.43
2022-10-11T10:35:42.871Z,7.70
2022-10-11T10:38:22.828Z,5.82
2022-10-11T10:40:56.119Z,9.25
2022-10-11T10:43:26.071Z,7.95
2022-10-11T10:45:52.651Z,8.80
2022-10-11T10:49:01.738Z,7.20
2022-10-11T10:51:26.375Z,5.18
2022-10-11T10:54:27.885Z,7.70
2022-10-11T10:57:21.859Z,5.13
2022-10-11T11:00:04.985Z,6.85
2022-10-11T11:02:53.352Z,6.38
2022-10-11T11:05:40.320Z,5.63
2022-10-11T11:08:38.456Z,6.25
2022-10-11T11:11:55.991Z,5.32
2022-10-11T11:14:31.968Z,8.73
2022-10-11T11:17:21.092Z,6.65
2022-10-11T11:20:06.774Z,5.80
2022-10-11T11:23:14.838Z,9.63
2022-10-11T11:26:19.802Z,7.90
2022-10-11T11:29:02.352Z,7.55
2022-10-11T11:32:06.803Z,6.85
2022-10-11T11:35:11.952Z,6.63
2022-10-11T11:37:41.653Z,8.13
2022-10-11T11:40:22.739Z,8.45
2022-10-11T11:42:57.110Z,6.53
2022-10-11T11:45:40.432Z,6.22
2022-10-11T11:48:13.853Z,6.35
2022-10-11T11:50:45.937Z,6.68
2022-10-11T11:53:38.118Z,5.57
2022-10-11T11:56:28.997Z,6.03
2022-10-11T11:59:31.677Z,6.40
2022-10-11T12:02:22.163Z,5.85
2022-10-11T12:04:50.829Z,6.10
2022-10-11T12:07:23.103Z,7.40
2022-10-11T12:09:55.006Z,7.57
2022-10-11T12:12:36.985Z,7.38
2022-10-11T12:15:09.736Z,6.38
2022-10-11T12:17:55.552Z,5.82
2022-10-11T12:20:24.520Z,6.95
2022-10-11T12:23:01.204Z,5.90
2022-10-11T12:25:28.568Z,6.68
2022-10-11T12:28:00.043Z,4.72
2022-10-11T12:30:47.813Z,4.05
2022-10-11T12:33:21.702Z,4.93
2022-10-11T12:35:54.328Z,3.88
2022-10-11T12:38:25.380Z,3.65
2022-10-11T12:41:09.046Z,6.60
2022-10-11T12:43:47.945Z,6.00
2022-10-11T12:46:38.158Z,4.43
2022-10-11T12:49:38.064Z,4.65
2022-10-11T12:52:16.730Z,5.75
2022-10-11T12:55:06.414Z,7.20
2022-10-11T12:58:01.597Z,6.50
2022-10-11T13:00:51.160Z,5.63
2022-10-11T13:03:44.165Z,7.80
2022-10-11T13:06:19.288Z,11.00
2022-10-11T13:08:52.626Z,5.03
2022-10-11T13:11:27.292Z,5.57
2022-10-11T13:13:58.541Z,5.80
2022-10-11T13:16:42.282Z,8.50
2022-10-11T13:19:13.996Z,6.60
2022-10-11T13:21:41.028Z,5.95
2022-10-11T13:24:18.851Z,5.15
2022-10-11T13:26:49.066Z,6.18
2022-10-11T13:29:34.522Z,4.45
2022-10-11T13:32:05.582Z,4.45
2022-10-11T13:34:38.071Z,5.97
2022-10-11T13:37:05.552Z,3.88
2022-10-11T13:39:37.079Z,5.32
2022-10-11T13:42:13.658Z,5.93
2022-10-11T13:44:43.166Z,5.18
2022-10-11T13:47:14.387Z,5.10
2022-10-11T13:49:46.190Z,3.80
2022-10-11T13:52:26.951Z,4.43
2022-10-11T13:55:00.759Z,4.90
2022-10-11T13:57:45.945Z,5.50
2022-10-11T14:00:15.653Z,5.43
2022-10-11T14:03:10.013Z,6.00
2022-10-11T14:05:42.425Z,3.20
2022-10-11T14:08:37.683Z,5.72
2022-10-11T14:11:06.916Z,3.88
2022-10-11T14:13:39.940Z,4.45
2022-10-11T14:16:12.606Z,5.13
2022-10-11T14:19:01.988Z,6.72
2022-10-11T14:21:31.426Z,3.45
2022-10-11T14:24:17.874Z,8.32
2022-10-11T14:26:47.308Z,4.57
2022-10-11T14:29:21.300Z,3.60
2022-10-11T14:31:49.500Z,4.63
2022-10-11T14:34:23.599Z,3.95
2022-10-11T14:36:50.752Z,4.55
2022-10-11T14:39:20.271Z,8.25
2022-10-11T14:41:47.317Z,6.00
2022-10-11T14:44:14.634Z,8.27
2022-10-11T14:46:41.406Z,4.38
2022-10-11T14:49:17.705Z,6.63
2022-10-11T14:51:46.396Z,6.70
2022-10-11T14:54:14.676Z,5.65
2022-10-11T14:56:41.389Z,6.43
2022-10-11T14:59:08.133Z,4.95
2022-10-11T15:01:34.965Z,8.90
2022-10-11T15:04:02.280Z,3.83
2022-10-11T15:06:32.765Z,5.80
2022-10-11T15:08:59.694Z,4.97
2022-10-11T15:11:26.619Z,4.28
2022-10-11T15:13:53.432Z,3.67
2022-10-11T15:16:21.461Z,3.80
2022-10-11T15:18:52.082Z,2.95
2022-10-11T15:21:21.854Z,3.95
2022-10-11T15:23:50.023Z,7.30
2022-10-11T15:26:21.996Z,5.80
2022-10-11T15:28:50.149Z,3.92
2022-10-11T15:31:29.655Z,5.00
2022-10-11T15:33:59.831Z,4.28
2022-10-11T15:36:26.978Z,8.13
2022-10-11T15:38:53.647Z,5.55
2022-10-11T15:41:20.837Z,5.30
2022-10-11T15:43:52.423Z,4.25
2022-10-11T15:46:22.224Z,4.30
2022-10-11T15:48:51.130Z,4.72
2022-10-11T15:51:18.166Z,8.65
2022-10-11T15:53:47.708Z,8.77
2022-10-11T15:56:17.163Z,8.45
2022-10-11T15:58:43.999Z,5.93
2022-10-11T16:01:17.057Z,6.60
2022-10-11T16:03:45.111Z,6.85
2022-10-11T16:06:13.119Z,7.63
2022-10-11T16:08:40.313Z,7.70
2022-10-11T16:11:08.395Z,11.45
2022-10-11T16:13:36.092Z,9.98
2022-10-11T16:16:05.358Z,5.25
2022-10-11T16:18:43.107Z,8.63
2022-10-11T16:21:12.921Z,5.40
2022-10-11T16:23:39.598Z,6.45
2022-10-11T16:26:09.379Z,9.85
2022-10-11T16:28:37.704Z,7.50
2022-10-11T16:31:10.257Z,7.32
2022-10-11T16:33:45.688Z,8.43
2022-10-11T16:36:34.364Z,8.88
2022-10-11T16:39:05.556Z,6.90
2022-10-11T16:41:32.262Z,9.15
2022-10-11T16:43:59.344Z,7.75
2022-10-11T16:46:26.087Z,8.25
2022-10-11T16:48:55.760Z,6.70
2022-10-11T16:51:24.225Z,7.40
2022-10-11T16:53:52.362Z,6.35
2022-10-11T16:56:22.413Z,8.13
2022-10-11T16:58:49.330Z,11.32
2022-10-11T17:01:16.202Z,6.97
2022-10-11T17:03:43.308Z,7.20
2022-10-11T17:06:10.096Z,5.63
2022-10-11T17:08:36.875Z,7.70
2022-10-11T17:11:04.060Z,7.13
2022-10-11T17:13:30.795Z,6.50
2022-10-11T17:15:57.543Z,6.90
2022-10-11T17:18:24.638Z,7.57
2022-10-11T17:20:54.535Z,5.03
2022-10-11T17:23:21.230Z,7.70
2022-10-11T17:25:47.956Z,4.30
2022-10-11T17:28:14.716Z,7.28
2022-10-11T17:30:42.139Z,4.80
2022-10-11T17:33:12.208Z,8.57
2022-10-11T17:35:47.979Z,6.72
2022-10-11T17:38:14.735Z,8.02
2022-10-11T17:40:44.127Z,7.95
2022-10-11T17:43:11.486Z,9.38
2022-10-11T17:46:16.455Z,7.65
2022-10-11T17:48:44.711Z,10.93
2022-10-11T17:51:14.558Z,6.85
2022-10-11T17:53:41.525Z,8.18
2022-10-11T17:56:16.803Z,10.32
2022-10-11T17:58:43.579Z,8.65
2022-10-11T18:01:13.951Z,8.88
2022-10-11T18:03:41.710Z,10.85
2022-10-11T18:06:10.800Z,10.80
2022-10-11T18:08:40.655Z,17.10
2022-10-11T18:11:29.253Z,16.65
2022-10-11T18:14:04.723Z,17.55
2022-10-11T18:16:36.282Z,17.73
2022-10-11T18:19:08.088Z,17.20
2022-10-11T18:21:38.152Z,12.57
2022-10-11T18:24:26.613Z,11.07
2022-10-11T18:26:53.289Z,10.73
2022-10-11T18:29:20.079Z,11.68
2022-10-11T18:31:46.740Z,10.68
2022-10-11T18:34:14.720Z,11.27
2022-10-11T18:36:41.863Z,11.57
2022-10-11T18:39:19.932Z,14.77
2022-10-11T18:41:46.656Z,10.23
2022-10-11T18:44:15.615Z,10.85
2022-10-11T18:46:43.039Z,10.73
2022-10-11T18:49:15.827Z,10.25
2022-10-11T18:51:44.950Z,31.80
2022-10-11T18:54:15.220Z,37.33
2022-10-11T18:56:49.399Z,27.05
2022-10-11T18:59:16.273Z,19.08
2022-10-11T19:01:44.562Z,18.27
2022-10-11T19:04:15.835Z,15.30
2022-10-11T19:06:47.316Z,13.85
2022-10-11T19:09:22.028Z,8.30
2022-10-11T19:11:51.137Z,10.88
2022-10-11T19:14:27.410Z,10.15
2022-10-11T19:16:57.912Z,9.65
2022-10-11T19:19:43.689Z,11.40
2022-10-11T19:22:10.368Z,10.35
2022-10-11T19:24:37.309Z,11.77
2022-10-11T19:27:08.856Z,10.50
2022-10-11T19:29:35.590Z,13.98
2022-10-11T19:32:05.596Z,15.32
2022-10-11T19:34:32.734Z,12.10
2022-10-11T19:37:01.072Z,13.57
2022-10-11T19:39:28.494Z,14.60
2022-10-11T19:41:55.230Z,16.42
2022-10-11T19:44:22.024Z,14.23
2022-10-11T19:46:52.381Z,16.75
2022-10-11T19:49:22.620Z,17.77
2022-10-11T19:51:49.614Z,20.23
2022-10-11T19:54:16.608Z,17.70
2022-10-11T19:56:44.611Z,18.63
2022-10-11T19:59:12.589Z,21.63
2022-10-11T20:01:40.062Z,19.33
2022-10-11T20:04:18.791Z,20.55
2022-10-11T20:06:55.236Z,20.20
2022-10-11T20:09:30.676Z,17.63
2022-10-11T20:11:58.154Z,20.75
2022-10-11T20:14:25.502Z,18.10
2022-10-11T20:16:52.949Z,25.00
2022-10-11T20:19:20.394Z,23.70
2022-10-11T20:21:47.625Z,17.90
2022-10-11T20:24:15.379Z,20.27
2022-10-11T20:26:41.960Z,19.80
2022-10-11T20:29:09.560Z,21.27
2022-10-11T20:31:41.614Z,21.27
2022-10-11T20:34:09.593Z,20.38
2022-10-11T20:36:36.760Z,22.95
2022-10-11T20:39:05.030Z,23.30
2022-10-11T20:41:39.670Z,25.63
2022-10-11T20:44:07.615Z,23.65
2022-10-11T20:46:37.300Z,23.25
2022-10-11T20:49:10.651Z,24.58
2022-10-11T20:51:39.172Z,20.35
2022-10-11T20:54:06.753Z,23.25
2022-10-11T20:56:34.825Z,15.90
2022-10-11T20:59:02.495Z,19.08
2022-10-11T21:01:31.800Z,18.65
2022-10-11T21:03:59.913Z,18.83
2022-10-11T21:06:27.397Z,18.27
2022-10-11T21:09:01.589Z,14.93
2022-10-11T21:11:33.372Z,15.75
2022-10-11T21:14:02.516Z,12.07
2022-10-11T21:16:29.762Z,16.45
2022-10-11T21:18:58.463Z,14.63
2022-10-11T21:21:26.078Z,18.20
2022-10-11T21:23:57.483Z,13.45
2022-10-11T21:26:24.248Z,14.80
2022-10-11T21:28:51.793Z,12.18
2022-10-11T21:31:20.085Z,15.48
2022-10-11T21:33:47.091Z,16.45
2022-10-11T21:36:17.394Z,18.77
2022-10-11T21:38:44.348Z,14.30
2022-10-11T21:41:13.698Z,14.07
2022-10-11T21:43:40.420Z,11.30
2022-10-11T21:46:09.914Z,14.18
2022-10-11T21:48:36.492Z,16.17
2022-10-11T21:51:03.407Z,12.68
2022-10-11T21:53:30.297Z,12.93
2022-10-11T21:56:01.251Z,12.63
2022-10-11T21:58:28.377Z,10.48
2022-10-11T22:00:55.069Z,11.07
2022-10-11T22:03:21.938Z,11.23
2022-10-11T22:05:48.934Z,13.93
2022-10-11T22:08:15.752Z,12.75
2022-10-11T22:10:53.404Z,13.25
2022-10-11T22:13:20.413Z,15.85
2022-10-11T22:15:47.060Z,13.25
2022-10-11T22:18:13.886Z,15.85
2022-10-11T22:20:40.559Z,13.32
2022-10-11T22:23:07.585Z,12.32
2022-10-11T22:25:35.661Z,11.85
2022-10-11T22:28:02.471Z,12.85
2022-10-11T22:30:29.285Z,13.60
2022-10-11T22:32:56.061Z,14.25
2022-10-11T22:35:23.286Z,9.95
2022-10-11T22:37:53.027Z,11.43
2022-10-11T22:40:20.329Z,10.35
2022-10-11T22:42:47.277Z,10.93
2022-10-11T22:45:14.195Z,11.20
2022-10-11T22:47:40.903Z,11.15
2022-10-11T22:50:07.865Z,9.32
2022-10-11T22:52:34.593Z,11.85
2022-10-11T22:55:01.211Z,9.05
2022-10-11T22:57:28.157Z,10.02
2022-10-11T22:59:54.738Z,14.30
2022-10-11T23:02:21.294Z,12.85
2022-10-11T23:04:48.582Z,13.45
2022-10-11T23:07:15.986Z,13.32
2022-10-11T23:09:42.584Z,10.73
2022-10-11T23:12:09.353Z,11.35
2022-10-11T23:14:36.483Z,9.70
2022-10-11T23:17:03.209Z,10.10
2022-10-11T23:19:29.875Z,11.63
2022-10-11T23:21:57.593Z,11.50
2022-10-11T23:24:24.662Z,14.23
2022-10-11T23:26:51.333Z,8.70
2022-10-11T23:29:18.138Z,11.52
2022-10-11T23:31:46.913Z,15.48
2022-10-11T23:34:14.187Z,10.90
2022-10-11T23:36:40.782Z,14.35
2022-10-11T23:39:07.445Z,12.57
2022-10-11T23:41:34.185Z,8.63
2022-10-11T23:44:00.885Z,10.73
2022-10-11T23:46:27.632Z,10.20
2022-10-11T23:48:54.284Z,13.43
2022-10-11T23:51:21.144Z,13.98
2022-10-11T23:53:47.793Z,12.75
2022-10-11T23:56:14.409Z,12.63
2022-10-11T23:58:41.058Z,10.52
